KRCR/RCR METAR and TAF weather

Enter ICAO airport designator
Station Type Date Time Source
KRCR METAR 2021/07/27 21:15 UTC NOAA

KRCR 272115Z AUTO 21005KT 10SM CLR 30/21 A3003 RMK AO2


Station Type Date Time Source
KRCR Decoded METAR 2021/07/27 21:15 UTC NOAA

Station name not available
Jul 27, 2021 - 05:15 PM EDT / 2021.07.27 2115 UTC
Wind: from the SSW (210 degrees) at 6 MPH (5 KT):0
Visibility: 10 mile(s):0
Sky conditions: clear
Temperature: 86 F (30 C)
Dew Point: 69 F (21 C)
Relative Humidity: 58%
Pressure (altimeter): 30.03 in. Hg (1016 hPa)
ob: KRCR 272115Z AUTO 21005KT 10SM CLR 30/21 A3003 RMK AO2
cycle: 21

Station Type Date Time Source
KRCR TAF UTC NOAA

Error!

Example: see airport list